createdAt,value
2022-12-25T00:00:05.482Z,0.00
2022-12-25T00:01:05.567Z,0.00
2022-12-25T00:02:05.432Z,0.00
2022-12-25T00:03:05.485Z,0.00
2022-12-25T00:04:05.488Z,0.00
2022-12-25T00:05:05.375Z,0.00
2022-12-25T00:06:05.404Z,0.00
2022-12-25T00:07:05.346Z,0.00
2022-12-25T00:08:05.329Z,0.00
2022-12-25T00:09:05.308Z,0.00
2022-12-25T00:10:05.311Z,0.00
2022-12-25T00:11:05.307Z,0.00
2022-12-25T00:12:05.280Z,0.00
2022-12-25T00:13:05.256Z,0.00
2022-12-25T00:14:05.252Z,0.00
2022-12-25T00:15:05.236Z,0.00
2022-12-25T00:16:05.343Z,0.00
2022-12-25T00:17:05.219Z,0.00
2022-12-25T00:18:05.196Z,0.00
2022-12-25T00:19:05.182Z,0.00
2022-12-25T00:20:05.173Z,0.00
2022-12-25T00:21:05.200Z,0.00
2022-12-25T00:22:05.138Z,0.00
2022-12-25T00:23:05.126Z,0.00
2022-12-25T00:24:05.117Z,0.00
2022-12-25T00:25:05.114Z,0.00
2022-12-25T00:26:05.116Z,0.00
2022-12-25T00:27:05.077Z,0.00
2022-12-25T00:28:05.057Z,0.00
2022-12-25T00:29:05.050Z,0.00
2022-12-25T00:30:05.039Z,0.00
2022-12-25T00:31:05.091Z,0.00
2022-12-25T00:32:05.025Z,0.00
2022-12-25T00:33:05.001Z,0.00
2022-12-25T00:34:04.978Z,0.00
2022-12-25T00:35:05.003Z,0.00
2022-12-25T00:36:04.981Z,0.00
2022-12-25T00:37:04.946Z,0.00
2022-12-25T00:38:04.958Z,0.00
2022-12-25T00:39:04.915Z,0.00
2022-12-25T00:40:04.899Z,0.00
2022-12-25T00:41:04.898Z,0.00
2022-12-25T00:42:04.885Z,0.00
2022-12-25T00:43:04.860Z,0.00
2022-12-25T00:44:04.857Z,0.00
2022-12-25T00:45:04.853Z,0.00
2022-12-25T00:46:04.890Z,0.00
2022-12-25T00:47:04.827Z,0.00
2022-12-25T00:48:04.798Z,0.00
2022-12-25T00:49:04.774Z,0.00
2022-12-25T00:50:04.797Z,0.00
2022-12-25T00:51:04.750Z,0.00
2022-12-25T00:52:04.729Z,0.00
2022-12-25T00:53:04.726Z,0.00
2022-12-25T00:54:04.715Z,0.00
2022-12-25T00:55:04.718Z,0.00
2022-12-25T00:56:04.685Z,0.00
2022-12-25T00:57:04.697Z,0.00
2022-12-25T00:58:04.655Z,0.00
2022-12-25T00:59:04.658Z,0.00
2022-12-25T01:00:04.653Z,0.00
2022-12-25T01:01:04.678Z,0.00
2022-12-25T01:02:04.738Z,0.00
2022-12-25T01:03:04.640Z,0.00
2022-12-25T01:04:04.571Z,0.00
2022-12-25T01:05:04.656Z,0.00
2022-12-25T01:06:04.562Z,0.00
2022-12-25T01:07:04.532Z,0.00
2022-12-25T01:08:04.536Z,0.00
2022-12-25T01:09:04.525Z,0.00
2022-12-25T01:10:04.542Z,0.00
2022-12-25T01:11:04.484Z,0.00
2022-12-25T01:12:04.468Z,0.00
2022-12-25T01:13:04.453Z,0.00
2022-12-25T01:14:04.430Z,0.00
2022-12-25T01:15:04.456Z,0.00
2022-12-25T01:16:04.448Z,0.00
2022-12-25T01:17:04.404Z,0.00
2022-12-25T01:18:07.965Z,0.00
2022-12-25T01:19:04.373Z,0.00
2022-12-25T01:20:04.399Z,0.00
2022-12-25T01:21:04.355Z,0.00
2022-12-25T01:22:04.346Z,0.00
2022-12-25T01:23:04.313Z,0.00
2022-12-25T01:24:04.303Z,0.00
2022-12-25T01:25:04.305Z,0.00
2022-12-25T01:26:04.277Z,0.00
2022-12-25T01:27:04.283Z,0.00
2022-12-25T01:28:04.245Z,0.00
2022-12-25T01:29:04.262Z,0.00
2022-12-25T01:30:04.265Z,0.00
2022-12-25T01:31:04.210Z,0.00
2022-12-25T01:32:04.287Z,0.00
2022-12-25T01:33:04.201Z,0.00
2022-12-25T01:34:04.173Z,0.00
2022-12-25T01:35:04.185Z,0.00
2022-12-25T01:36:04.137Z,0.00
2022-12-25T01:37:04.133Z,0.00
2022-12-25T01:38:04.114Z,0.00
2022-12-25T01:39:04.103Z,0.00
2022-12-25T01:40:04.106Z,0.00
2022-12-25T01:41:04.072Z,0.00
2022-12-25T01:42:04.068Z,0.00
2022-12-25T01:43:04.045Z,0.00
2022-12-25T01:44:04.046Z,0.00
2022-12-25T01:45:04.047Z,0.00
2022-12-25T01:46:04.077Z,0.00
2022-12-25T01:47:03.994Z,0.00
2022-12-25T01:48:03.980Z,0.00
2022-12-25T01:49:03.976Z,0.00
2022-12-25T01:50:03.978Z,0.00
2022-12-25T01:51:03.948Z,0.00
2022-12-25T01:52:03.926Z,0.00
2022-12-25T01:53:03.919Z,0.00
2022-12-25T01:54:03.912Z,0.00
2022-12-25T01:55:03.952Z,0.00
2022-12-25T01:56:03.914Z,0.00
2022-12-25T01:57:03.867Z,0.00
2022-12-25T01:58:03.847Z,0.00
2022-12-25T01:59:03.837Z,0.00
2022-12-25T02:00:03.836Z,0.00
2022-12-25T02:01:03.879Z,0.00
2022-12-25T02:02:03.897Z,0.00
2022-12-25T02:03:03.848Z,0.00
2022-12-25T02:04:03.771Z,0.00
2022-12-25T02:05:03.784Z,0.00
2022-12-25T02:06:03.745Z,0.00
2022-12-25T02:07:03.727Z,0.00
2022-12-25T02:08:03.707Z,0.00
2022-12-25T02:09:03.706Z,0.00
2022-12-25T02:10:03.699Z,0.00
2022-12-25T02:11:03.690Z,0.00
2022-12-25T02:12:03.667Z,0.00
2022-12-25T02:13:03.651Z,0.00
2022-12-25T02:14:03.664Z,0.00
2022-12-25T02:15:06.151Z,0.00
2022-12-25T02:16:03.639Z,0.00
2022-12-25T02:17:03.666Z,0.00
2022-12-25T02:18:03.604Z,0.00
2022-12-25T02:19:03.569Z,0.00
2022-12-25T02:20:03.570Z,0.00
2022-12-25T02:21:03.538Z,0.00
2022-12-25T02:22:03.520Z,0.00
2022-12-25T02:23:03.520Z,0.00
2022-12-25T02:24:03.501Z,0.00
2022-12-25T02:25:03.500Z,0.00
2022-12-25T02:26:03.478Z,0.00
2022-12-25T02:27:03.459Z,0.00
2022-12-25T02:28:03.467Z,0.00
2022-12-25T02:29:03.449Z,0.00
2022-12-25T02:30:03.440Z,0.00
2022-12-25T02:31:03.426Z,0.00
2022-12-25T02:32:03.441Z,0.00
2022-12-25T02:33:03.380Z,0.00
2022-12-25T02:34:03.369Z,0.00
2022-12-25T02:35:03.367Z,0.00
2022-12-25T02:36:03.347Z,0.00
2022-12-25T02:37:03.325Z,0.00
2022-12-25T02:38:03.301Z,0.00
2022-12-25T02:39:03.310Z,0.00
2022-12-25T02:40:03.301Z,0.00
2022-12-25T02:41:03.273Z,0.00
2022-12-25T02:42:03.282Z,0.00
2022-12-25T02:43:03.247Z,0.00
2022-12-25T02:44:03.256Z,0.00
2022-12-25T02:45:03.232Z,0.00
2022-12-25T02:46:03.224Z,0.00
2022-12-25T02:47:03.197Z,0.00
2022-12-25T02:48:03.164Z,0.00
2022-12-25T02:49:03.164Z,0.00
2022-12-25T02:50:03.160Z,0.00
2022-12-25T02:51:03.149Z,0.00
2022-12-25T02:52:03.123Z,0.00
2022-12-25T02:53:03.138Z,0.00
2022-12-25T02:54:03.083Z,0.00
2022-12-25T02:55:03.116Z,0.00
2022-12-25T02:56:03.084Z,0.00
2022-12-25T02:57:03.085Z,0.00
2022-12-25T02:58:03.038Z,0.00
2022-12-25T02:59:03.037Z,0.00
2022-12-25T03:00:03.037Z,0.00
2022-12-25T03:01:03.019Z,0.00
2022-12-25T03:02:03.126Z,0.00
2022-12-25T03:03:03.005Z,0.00
2022-12-25T03:04:02.975Z,0.00
2022-12-25T03:05:02.967Z,0.00
2022-12-25T03:06:02.961Z,0.00
2022-12-25T03:07:02.925Z,0.00
2022-12-25T03:08:02.937Z,0.00
2022-12-25T03:09:02.895Z,0.00
2022-12-25T03:10:02.922Z,0.00
2022-12-25T03:11:02.875Z,0.00
2022-12-25T03:12:02.862Z,0.00
2022-12-25T03:13:02.845Z,0.00
2022-12-25T03:14:02.825Z,0.00
2022-12-25T03:15:02.813Z,0.00
2022-12-25T03:16:02.806Z,0.00
2022-12-25T03:17:02.868Z,0.00
2022-12-25T03:18:02.767Z,0.00
2022-12-25T03:19:02.769Z,0.00
2022-12-25T03:20:02.803Z,0.00
2022-12-25T03:21:02.752Z,0.00
2022-12-25T03:22:02.725Z,0.00
2022-12-25T03:23:02.716Z,0.00
2022-12-25T03:24:02.725Z,0.00
2022-12-25T03:25:02.697Z,0.00
2022-12-25T03:26:02.686Z,0.00
2022-12-25T03:27:02.677Z,0.00
2022-12-25T03:28:02.640Z,0.00
2022-12-25T03:29:02.633Z,0.00
2022-12-25T03:30:02.619Z,0.00
2022-12-25T03:31:02.765Z,0.00
2022-12-25T03:32:02.580Z,0.00
2022-12-25T03:33:17.793Z,0.00
2022-12-25T03:34:03.564Z,0.00
2022-12-25T03:35:02.555Z,0.00
2022-12-25T03:36:02.562Z,0.00
2022-12-25T03:37:02.567Z,0.00
2022-12-25T03:38:02.508Z,0.00
2022-12-25T03:39:02.536Z,0.00
2022-12-25T03:40:02.471Z,0.00
2022-12-25T03:41:02.482Z,0.00
2022-12-25T03:42:02.463Z,0.00
2022-12-25T03:43:02.442Z,0.00
2022-12-25T03:44:02.425Z,0.00
2022-12-25T03:45:02.413Z,0.00
2022-12-25T03:46:02.438Z,0.00
2022-12-25T03:47:02.433Z,0.00
2022-12-25T03:48:02.372Z,0.00
2022-12-25T03:49:02.362Z,0.00
2022-12-25T03:50:02.338Z,0.00
2022-12-25T03:51:02.366Z,0.00
2022-12-25T03:52:02.312Z,0.00
2022-12-25T03:53:02.304Z,0.00
2022-12-25T03:54:02.321Z,0.00
2022-12-25T03:55:02.271Z,0.00
2022-12-25T03:56:02.293Z,0.00
2022-12-25T03:57:02.267Z,0.00
2022-12-25T03:58:02.253Z,0.00
2022-12-25T03:59:02.232Z,0.00
2022-12-25T04:00:02.231Z,0.00
2022-12-25T04:01:02.281Z,0.00
2022-12-25T04:02:02.488Z,0.00
2022-12-25T04:03:02.208Z,0.00
2022-12-25T04:04:02.167Z,0.00
2022-12-25T04:05:02.197Z,0.00
2022-12-25T04:06:02.154Z,0.00
2022-12-25T04:07:02.131Z,0.00
2022-12-25T04:08:02.111Z,0.00
2022-12-25T04:09:02.110Z,0.00
2022-12-25T04:10:02.061Z,0.00
2022-12-25T04:11:02.093Z,0.00
2022-12-25T04:12:03.073Z,0.00
2022-12-25T04:13:02.034Z,0.00
2022-12-25T04:14:02.015Z,0.00
2022-12-25T04:15:02.022Z,0.00
2022-12-25T04:16:02.056Z,0.00
2022-12-25T04:17:01.997Z,0.00
2022-12-25T04:18:01.983Z,0.00
2022-12-25T04:19:01.975Z,0.00
2022-12-25T04:20:01.932Z,0.00
2022-12-25T04:21:01.943Z,0.00
2022-12-25T04:22:01.919Z,0.00
2022-12-25T04:23:01.906Z,0.00
2022-12-25T04:24:01.887Z,0.00
2022-12-25T04:25:01.866Z,0.00
2022-12-25T04:26:01.867Z,0.00
2022-12-25T04:27:01.838Z,0.00
2022-12-25T04:28:01.837Z,0.00
2022-12-25T04:29:01.834Z,0.00
2022-12-25T04:30:01.811Z,0.00
2022-12-25T04:31:01.848Z,0.00
2022-12-25T04:32:01.779Z,0.00
2022-12-25T04:33:01.756Z,0.00
2022-12-25T04:34:01.749Z,0.00
2022-12-25T04:35:01.728Z,0.00
2022-12-25T04:36:01.732Z,0.00
2022-12-25T04:37:01.720Z,0.00
2022-12-25T04:38:01.688Z,0.00
2022-12-25T04:39:01.683Z,0.00
2022-12-25T04:40:01.666Z,0.00
2022-12-25T04:41:01.710Z,0.00
2022-12-25T04:42:01.644Z,0.00
2022-12-25T04:43:01.640Z,0.00
2022-12-25T04:44:01.613Z,0.00
2022-12-25T04:45:01.595Z,0.00
2022-12-25T04:46:01.645Z,0.00
2022-12-25T04:47:05.843Z,0.00
2022-12-25T04:48:02.549Z,0.00
2022-12-25T04:49:01.550Z,0.00
2022-12-25T04:50:01.517Z,0.00
2022-12-25T04:51:01.540Z,0.00
2022-12-25T04:52:01.500Z,0.00
2022-12-25T04:53:01.489Z,0.00
2022-12-25T04:54:01.480Z,0.00
2022-12-25T04:55:01.460Z,0.00
2022-12-25T04:56:01.464Z,0.00
2022-12-25T04:57:01.444Z,0.00
2022-12-25T04:58:01.430Z,0.00
2022-12-25T04:59:01.422Z,0.00
2022-12-25T05:00:01.417Z,0.00
2022-12-25T05:01:01.387Z,0.00
2022-12-25T05:02:01.523Z,0.00
2022-12-25T05:03:01.436Z,0.00
2022-12-25T05:04:01.334Z,0.00
2022-12-25T05:05:01.447Z,0.00
2022-12-25T05:06:01.320Z,0.00
2022-12-25T05:07:01.320Z,0.00
2022-12-25T05:08:01.282Z,0.00
2022-12-25T05:09:01.282Z,0.00
2022-12-25T05:10:01.293Z,0.00
2022-12-25T05:11:01.241Z,0.00
2022-12-25T05:12:01.241Z,0.00
2022-12-25T05:13:01.218Z,0.00
2022-12-25T05:14:01.192Z,0.00
2022-12-25T05:15:01.184Z,0.00
2022-12-25T05:16:01.261Z,0.00
2022-12-25T05:17:01.178Z,0.00
2022-12-25T05:18:01.158Z,0.00
2022-12-25T05:19:01.131Z,0.00
2022-12-25T05:20:01.122Z,0.00
2022-12-25T05:21:01.107Z,0.00
2022-12-25T05:22:01.120Z,0.00
2022-12-25T05:23:01.072Z,0.00
2022-12-25T05:24:01.082Z,0.00
2022-12-25T05:25:01.048Z,0.00
2022-12-25T05:26:01.035Z,0.00
2022-12-25T05:27:01.045Z,0.00
2022-12-25T05:28:01.015Z,0.00
2022-12-25T05:29:01.003Z,0.00
2022-12-25T05:30:00.983Z,0.00
2022-12-25T05:31:01.734Z,0.00
2022-12-25T05:32:00.972Z,0.00
2022-12-25T05:33:00.956Z,0.00
2022-12-25T05:34:00.931Z,0.00
2022-12-25T05:35:00.902Z,0.00
2022-12-25T05:36:00.911Z,0.00
2022-12-25T05:37:00.924Z,0.00
2022-12-25T05:38:00.875Z,0.00
2022-12-25T05:39:00.854Z,0.00
2022-12-25T05:40:00.864Z,0.00
2022-12-25T05:41:00.833Z,0.00
2022-12-25T05:42:00.864Z,0.00
2022-12-25T05:43:00.804Z,0.00
2022-12-25T05:44:00.796Z,0.00
2022-12-25T05:45:00.775Z,0.00
2022-12-25T05:46:00.757Z,0.00
2022-12-25T05:47:00.879Z,0.00
2022-12-25T05:48:00.726Z,0.00
2022-12-25T05:49:00.787Z,0.00
2022-12-25T05:50:00.711Z,0.00
2022-12-25T05:51:00.976Z,0.00
2022-12-25T05:52:00.704Z,0.00
2022-12-25T05:53:07.751Z,0.00
2022-12-25T05:54:01.699Z,0.00
2022-12-25T05:55:00.645Z,0.00
2022-12-25T05:56:00.613Z,0.00
2022-12-25T05:57:00.630Z,0.00
2022-12-25T05:58:00.598Z,0.00
2022-12-25T05:59:00.598Z,0.00
2022-12-25T06:00:00.586Z,0.00
2022-12-25T06:01:00.568Z,0.00
2022-12-25T06:02:00.662Z,0.00
2022-12-25T06:03:00.701Z,0.00
2022-12-25T06:04:00.549Z,0.00
2022-12-25T06:05:00.489Z,0.00
2022-12-25T06:06:00.510Z,0.00
2022-12-25T06:07:00.504Z,0.00
2022-12-25T06:08:00.461Z,0.00
2022-12-25T06:09:00.441Z,0.00
2022-12-25T06:10:00.436Z,0.00
2022-12-25T06:11:00.425Z,0.00
2022-12-25T06:12:00.394Z,0.00
2022-12-25T06:13:00.408Z,0.00
2022-12-25T06:14:00.400Z,0.00
2022-12-25T06:15:00.366Z,0.00
2022-12-25T06:16:00.399Z,0.00
2022-12-25T06:17:00.467Z,0.00
2022-12-25T06:18:00.330Z,0.00
2022-12-25T06:19:00.319Z,0.00
2022-12-25T06:20:00.296Z,0.00
2022-12-25T06:21:00.267Z,0.00
2022-12-25T06:22:00.294Z,0.00
2022-12-25T06:23:00.290Z,0.00
2022-12-25T06:24:00.330Z,0.00
2022-12-25T06:25:00.216Z,0.00
2022-12-25T06:26:00.212Z,0.00
2022-12-25T06:27:00.207Z,0.00
2022-12-25T06:28:00.195Z,0.00
2022-12-25T06:29:00.164Z,0.00
2022-12-25T06:30:00.184Z,0.00
2022-12-25T06:31:00.162Z,0.00
2022-12-25T06:32:00.250Z,0.00
2022-12-25T06:33:00.158Z,0.00
2022-12-25T06:34:00.097Z,0.00
2022-12-25T06:35:00.136Z,0.00
2022-12-25T06:36:00.097Z,0.00
2022-12-25T06:37:00.061Z,0.00
2022-12-25T06:38:00.064Z,0.00
2022-12-25T06:39:00.035Z,0.00
2022-12-25T06:40:00.043Z,0.00
2022-12-25T06:41:00.040Z,0.00
2022-12-25T06:41:59.993Z,0.00
2022-12-25T06:42:59.983Z,0.00
2022-12-25T06:43:59.965Z,0.00
2022-12-25T06:44:59.955Z,0.00
2022-12-25T06:46:00.032Z,0.00
2022-12-25T06:46:59.914Z,0.00
2022-12-25T06:47:59.910Z,0.00
2022-12-25T06:48:59.912Z,0.00
2022-12-25T06:49:59.899Z,0.00
2022-12-25T06:50:59.910Z,0.00
2022-12-25T06:51:59.854Z,0.00
2022-12-25T06:52:59.843Z,0.00
2022-12-25T06:53:59.862Z,0.00
2022-12-25T06:54:59.824Z,0.00
2022-12-25T06:55:59.831Z,0.00
2022-12-25T06:56:59.782Z,0.00
2022-12-25T06:57:59.774Z,0.00
2022-12-25T06:58:59.765Z,0.00
2022-12-25T06:59:59.765Z,0.00
2022-12-25T07:00:59.765Z,0.00
2022-12-25T07:02:00.010Z,0.00
2022-12-25T07:02:59.880Z,0.00
2022-12-25T07:03:59.691Z,0.00
2022-12-25T07:04:59.687Z,0.00
2022-12-25T07:05:59.683Z,4.00
2022-12-25T07:07:04.408Z,4.00
2022-12-25T07:08:00.657Z,4.00
2022-12-25T07:08:59.621Z,0.00
2022-12-25T07:09:59.623Z,0.00
2022-12-25T07:10:59.603Z,4.00
2022-12-25T07:11:59.584Z,4.00
2022-12-25T07:12:59.570Z,4.00
2022-12-25T07:13:59.567Z,4.00
2022-12-25T07:14:59.553Z,4.00
2022-12-25T07:15:59.571Z,8.00
2022-12-25T07:16:59.626Z,8.00
2022-12-25T07:17:59.504Z,8.00
2022-12-25T07:18:59.484Z,12.00
2022-12-25T07:19:59.484Z,8.00
2022-12-25T07:20:59.508Z,12.00
2022-12-25T07:21:59.452Z,12.00
2022-12-25T07:22:59.433Z,16.00
2022-12-25T07:23:59.432Z,16.00
2022-12-25T07:24:59.429Z,16.00
2022-12-25T07:25:59.422Z,20.00
2022-12-25T07:26:59.376Z,20.00
2022-12-25T07:27:59.368Z,24.00
2022-12-25T07:28:59.346Z,28.00
2022-12-25T07:29:59.346Z,28.00
2022-12-25T07:30:59.346Z,32.00
2022-12-25T07:31:59.430Z,36.00
2022-12-25T07:32:59.297Z,40.00
2022-12-25T07:33:59.285Z,44.00
2022-12-25T07:34:59.280Z,48.00
2022-12-25T07:35:59.279Z,48.00
2022-12-25T07:36:59.250Z,52.00
2022-12-25T07:37:59.239Z,60.00
2022-12-25T07:38:59.223Z,64.00
2022-12-25T07:39:59.202Z,76.00
2022-12-25T07:40:59.208Z,84.00
2022-12-25T07:41:59.173Z,96.00
2022-12-25T07:42:59.172Z,104.00
2022-12-25T07:43:59.157Z,116.00
2022-12-25T07:44:59.132Z,124.00
2022-12-25T07:45:59.225Z,132.00
2022-12-25T07:46:59.110Z,140.00
2022-12-25T07:48:04.993Z,148.00
2022-12-25T07:49:00.092Z,164.00
2022-12-25T07:49:59.069Z,184.00
2022-12-25T07:50:59.068Z,208.00
2022-12-25T07:51:59.058Z,220.00
2022-12-25T07:52:59.024Z,220.00
2022-12-25T07:53:59.025Z,216.00
2022-12-25T07:54:58.999Z,212.00
2022-12-25T07:55:59.026Z,216.00
2022-12-25T07:56:58.959Z,220.00
2022-12-25T07:57:58.949Z,228.00
2022-12-25T07:58:58.959Z,240.00
2022-12-25T07:59:58.937Z,256.00
2022-12-25T08:00:58.998Z,264.00
2022-12-25T08:01:59.260Z,272.00
2022-12-25T08:02:58.998Z,276.00
2022-12-25T08:03:58.945Z,276.00
2022-12-25T08:04:58.899Z,264.00
2022-12-25T08:05:58.850Z,260.00
2022-12-25T08:06:58.835Z,248.00
2022-12-25T08:07:58.821Z,236.00
2022-12-25T08:08:58.809Z,224.00
2022-12-25T08:09:58.857Z,220.00
2022-12-25T08:10:58.771Z,216.00
2022-12-25T08:11:58.764Z,212.00
2022-12-25T08:12:58.740Z,216.00
2022-12-25T08:13:58.749Z,220.00
2022-12-25T08:14:58.752Z,232.00
2022-12-25T08:15:58.713Z,232.00
2022-12-25T08:16:58.844Z,220.00
2022-12-25T08:17:58.686Z,204.00
2022-12-25T08:18:58.686Z,204.00
2022-12-25T08:19:58.673Z,204.00
2022-12-25T08:20:58.645Z,216.00
2022-12-25T08:21:58.623Z,220.00
2022-12-25T08:22:58.621Z,216.00
2022-12-25T08:23:58.604Z,204.00
2022-12-25T08:24:58.613Z,192.00
2022-12-25T08:26:04.247Z,204.00
2022-12-25T08:26:59.562Z,212.00
2022-12-25T08:27:58.552Z,216.00
2022-12-25T08:28:58.533Z,228.00
2022-12-25T08:29:58.542Z,264.00
2022-12-25T08:30:58.567Z,304.00
2022-12-25T08:31:58.571Z,332.00
2022-12-25T08:32:58.480Z,364.00
2022-12-25T08:33:58.498Z,380.00
2022-12-25T08:34:58.476Z,400.00
2022-12-25T08:35:58.448Z,436.00
2022-12-25T08:36:58.424Z,460.00
2022-12-25T08:37:58.478Z,424.00
2022-12-25T08:39:02.580Z,436.00
2022-12-25T08:39:58.383Z,452.00
2022-12-25T08:40:58.384Z,428.00
2022-12-25T08:41:58.382Z,396.00
2022-12-25T08:42:58.333Z,364.00
2022-12-25T08:43:58.360Z,332.00
2022-12-25T08:44:58.306Z,316.00
2022-12-25T08:45:58.348Z,312.00
2022-12-25T08:46:58.278Z,280.00
2022-12-25T08:47:58.271Z,252.00
2022-12-25T08:48:58.266Z,260.00
2022-12-25T08:49:58.243Z,248.00
2022-12-25T08:50:58.225Z,248.00
2022-12-25T08:51:58.206Z,260.00
2022-12-25T08:52:58.195Z,256.00
2022-12-25T08:53:58.222Z,264.00
2022-12-25T08:54:58.168Z,292.00
2022-12-25T08:55:58.163Z,332.00
2022-12-25T08:57:02.593Z,384.00
2022-12-25T08:57:59.141Z,436.00
2022-12-25T08:58:58.149Z,464.00
2022-12-25T08:59:58.106Z,456.00
2022-12-25T09:00:58.111Z,416.00
2022-12-25T09:01:58.176Z,368.00
2022-12-25T09:02:58.189Z,324.00
2022-12-25T09:03:58.063Z,296.00
2022-12-25T09:04:58.045Z,288.00
2022-12-25T09:05:58.028Z,288.00
2022-12-25T09:06:58.022Z,296.00
2022-12-25T09:07:57.999Z,308.00
2022-12-25T09:08:57.999Z,308.00
2022-12-25T09:09:57.959Z,300.00
2022-12-25T09:10:57.954Z,300.00
2022-12-25T09:11:57.941Z,300.00
2022-12-25T09:12:57.918Z,280.00
2022-12-25T09:13:57.931Z,248.00
2022-12-25T09:14:57.895Z,232.00
2022-12-25T09:15:57.939Z,236.00
2022-12-25T09:16:57.860Z,248.00
2022-12-25T09:17:57.861Z,240.00
2022-12-25T09:18:57.861Z,212.00
2022-12-25T09:19:57.829Z,212.00
2022-12-25T09:20:57.843Z,240.00
2022-12-25T09:21:57.804Z,224.00
2022-12-25T09:22:57.789Z,200.00
2022-12-25T09:23:57.818Z,184.00
2022-12-25T09:24:57.762Z,180.00
2022-12-25T09:25:57.747Z,168.00
2022-12-25T09:26:57.735Z,136.00
2022-12-25T09:27:57.728Z,108.00
2022-12-25T09:28:57.722Z,112.00
2022-12-25T09:29:57.692Z,116.00
2022-12-25T09:30:57.772Z,120.00
2022-12-25T09:31:57.659Z,136.00
2022-12-25T09:32:57.665Z,136.00
2022-12-25T09:33:57.665Z,144.00
2022-12-25T09:34:57.621Z,148.00
2022-12-25T09:35:57.603Z,144.00
2022-12-25T09:36:57.592Z,128.00
2022-12-25T09:37:57.582Z,136.00
2022-12-25T09:38:57.583Z,140.00
2022-12-25T09:39:57.541Z,132.00
2022-12-25T09:40:57.543Z,116.00
2022-12-25T09:41:57.533Z,104.00
2022-12-25T09:42:57.514Z,84.00
2022-12-25T09:43:57.509Z,76.00
2022-12-25T09:44:57.491Z,68.00
2022-12-25T09:45:57.515Z,64.00
2022-12-25T09:46:57.556Z,64.00
2022-12-25T09:47:57.448Z,60.00
2022-12-25T09:48:57.446Z,64.00
2022-12-25T09:49:57.412Z,88.00
2022-12-25T09:50:57.392Z,108.00
2022-12-25T09:51:57.384Z,96.00
2022-12-25T09:52:57.508Z,100.00
2022-12-25T09:53:57.374Z,124.00
2022-12-25T09:54:57.356Z,172.00
2022-12-25T09:55:57.324Z,220.00
2022-12-25T09:56:57.319Z,232.00
2022-12-25T09:57:57.303Z,248.00
2022-12-25T09:58:57.305Z,240.00
2022-12-25T09:59:57.269Z,208.00
2022-12-25T10:00:57.264Z,192.00
2022-12-25T10:01:57.382Z,180.00
2022-12-25T10:02:57.439Z,196.00
2022-12-25T10:03:57.283Z,252.00
2022-12-25T10:04:57.205Z,288.00
2022-12-25T10:05:57.196Z,316.00
2022-12-25T10:06:57.176Z,360.00
2022-12-25T10:07:57.155Z,384.00
2022-12-25T10:08:57.162Z,372.00
2022-12-25T10:09:57.135Z,332.00
2022-12-25T10:10:57.125Z,312.00
2022-12-25T10:11:57.106Z,340.00
2022-12-25T10:12:57.189Z,452.00
2022-12-25T10:13:57.094Z,484.00
2022-12-25T10:14:57.069Z,480.00
2022-12-25T10:15:57.101Z,500.00
2022-12-25T10:16:57.055Z,468.00
2022-12-25T10:17:57.018Z,432.00
2022-12-25T10:18:57.080Z,516.00
2022-12-25T10:19:56.996Z,556.00
2022-12-25T10:20:57.003Z,504.00
2022-12-25T10:21:56.975Z,440.00
2022-12-25T10:22:57.011Z,504.00
2022-12-25T10:23:57.084Z,524.00
2022-12-25T10:24:56.938Z,492.00
2022-12-25T10:25:56.922Z,460.00
2022-12-25T10:26:56.909Z,408.00
2022-12-25T10:27:56.883Z,364.00
2022-12-25T10:28:56.903Z,360.00
2022-12-25T10:29:56.866Z,380.00
2022-12-25T10:30:56.937Z,376.00
2022-12-25T10:31:56.825Z,360.00
2022-12-25T10:32:56.830Z,316.00
2022-12-25T10:33:56.798Z,264.00
2022-12-25T10:34:56.810Z,208.00
2022-12-25T10:35:56.777Z,188.00
2022-12-25T10:36:56.787Z,204.00
2022-12-25T10:37:56.753Z,272.00
2022-12-25T10:38:56.758Z,364.00
2022-12-25T10:39:56.738Z,432.00
2022-12-25T10:40:56.717Z,448.00
2022-12-25T10:41:56.699Z,488.00
2022-12-25T10:42:56.688Z,452.00
2022-12-25T10:43:56.670Z,412.00
2022-12-25T10:44:56.688Z,412.00
2022-12-25T10:45:56.661Z,360.00
2022-12-25T10:46:56.759Z,356.00
2022-12-25T10:48:03.417Z,344.00
2022-12-25T10:48:57.609Z,356.00
2022-12-25T10:49:56.611Z,376.00
2022-12-25T10:50:56.584Z,356.00
2022-12-25T10:51:56.571Z,324.00
2022-12-25T10:52:56.613Z,284.00
2022-12-25T10:53:56.537Z,256.00
2022-12-25T10:54:56.539Z,264.00
2022-12-25T10:55:56.505Z,240.00
2022-12-25T10:56:56.501Z,208.00
2022-12-25T10:57:56.481Z,280.00
2022-12-25T10:58:56.460Z,340.00
2022-12-25T10:59:56.530Z,428.00
2022-12-25T11:00:56.441Z,472.00
2022-12-25T11:01:56.494Z,456.00
2022-12-25T11:02:56.697Z,380.00
2022-12-25T11:03:56.403Z,348.00
2022-12-25T11:04:56.406Z,288.00
2022-12-25T11:05:56.361Z,268.00
2022-12-25T11:06:56.366Z,332.00
2022-12-25T11:07:56.332Z,392.00
2022-12-25T11:08:56.341Z,356.00
2022-12-25T11:10:02.736Z,440.00
2022-12-25T11:10:57.304Z,508.00
2022-12-25T11:11:56.284Z,448.00
2022-12-25T11:12:56.272Z,440.00
2022-12-25T11:13:56.245Z,348.00
2022-12-25T11:14:56.260Z,300.00
2022-12-25T11:15:56.271Z,364.00
2022-12-25T11:16:56.214Z,368.00
2022-12-25T11:17:56.194Z,424.00
2022-12-25T11:18:56.205Z,544.00
2022-12-25T11:19:56.199Z,580.00
2022-12-25T11:20:56.165Z,612.00
2022-12-25T11:21:56.143Z,736.00
2022-12-25T11:22:56.136Z,844.00
2022-12-25T11:23:56.119Z,828.00
2022-12-25T11:24:56.149Z,1020.00
2022-12-25T11:25:56.092Z,1088.00
2022-12-25T11:26:56.084Z,1072.00
2022-12-25T11:27:56.065Z,1288.00
2022-12-25T11:28:56.062Z,1332.00
2022-12-25T11:29:56.060Z,1352.00
2022-12-25T11:31:54.550Z,1272.00
2022-12-25T11:32:51.745Z,1052.00
2022-12-25T11:33:51.727Z,964.00
2022-12-25T11:34:51.731Z,892.00
2022-12-25T11:35:51.700Z,808.00
2022-12-25T11:36:51.699Z,952.00
2022-12-25T11:37:51.679Z,988.00
2022-12-25T11:38:51.669Z,1012.00
2022-12-25T11:39:51.665Z,992.00
2022-12-25T11:40:51.645Z,940.00
2022-12-25T11:41:51.634Z,816.00
2022-12-25T11:42:51.638Z,588.00
2022-12-25T11:43:51.631Z,496.00
2022-12-25T11:44:51.602Z,484.00
2022-12-25T11:45:51.573Z,416.00
2022-12-25T11:46:51.676Z,336.00
2022-12-25T11:47:51.552Z,272.00
2022-12-25T11:48:51.559Z,228.00
2022-12-25T11:49:53.969Z,196.00
2022-12-25T11:50:52.527Z,180.00
2022-12-25T11:51:51.483Z,152.00
2022-12-25T11:52:51.484Z,128.00
2022-12-25T11:53:51.487Z,132.00
2022-12-25T11:54:51.464Z,152.00
2022-12-25T11:55:51.447Z,168.00
2022-12-25T11:56:51.437Z,212.00
2022-12-25T11:57:51.426Z,260.00
2022-12-25T11:58:51.418Z,280.00
2022-12-25T11:59:51.396Z,244.00
2022-12-25T12:00:51.370Z,224.00
2022-12-25T12:01:51.443Z,204.00
2022-12-25T12:02:51.421Z,204.00
2022-12-25T12:03:51.378Z,200.00
2022-12-25T12:04:51.414Z,180.00
2022-12-25T12:05:51.315Z,184.00
2022-12-25T12:06:51.297Z,192.00
2022-12-25T12:07:51.309Z,184.00
2022-12-25T12:08:51.271Z,164.00
2022-12-25T12:09:51.290Z,148.00
2022-12-25T12:10:51.247Z,152.00
2022-12-25T12:11:51.243Z,196.00
2022-12-25T12:12:51.216Z,188.00
2022-12-25T12:13:51.198Z,156.00
2022-12-25T12:14:51.203Z,172.00
2022-12-25T12:15:51.172Z,208.00
2022-12-25T12:16:51.205Z,248.00
2022-12-25T12:17:51.151Z,260.00
2022-12-25T12:18:51.159Z,252.00
2022-12-25T12:19:51.156Z,264.00
2022-12-25T12:20:51.105Z,252.00
2022-12-25T12:21:51.085Z,228.00
2022-12-25T12:22:51.075Z,224.00
2022-12-25T12:23:51.056Z,220.00
2022-12-25T12:24:51.099Z,240.00
2022-12-25T12:25:51.048Z,292.00
2022-12-25T12:26:51.027Z,300.00
2022-12-25T12:27:51.016Z,280.00
2022-12-25T12:28:51.008Z,252.00
2022-12-25T12:29:51.002Z,224.00
2022-12-25T12:30:50.966Z,196.00
2022-12-25T12:31:51.033Z,212.00
2022-12-25T12:32:50.963Z,208.00
2022-12-25T12:33:50.937Z,248.00
2022-12-25T12:34:50.943Z,300.00
2022-12-25T12:35:50.908Z,276.00
2022-12-25T12:36:50.891Z,248.00
2022-12-25T12:37:50.892Z,292.00
2022-12-25T12:38:50.905Z,268.00
2022-12-25T12:39:50.876Z,256.00
2022-12-25T12:40:50.841Z,264.00
2022-12-25T12:41:50.847Z,232.00
2022-12-25T12:42:50.834Z,268.00
2022-12-25T12:43:50.821Z,308.00
2022-12-25T12:44:50.798Z,352.00
2022-12-25T12:45:50.821Z,336.00
2022-12-25T12:46:50.781Z,320.00
2022-12-25T12:47:50.767Z,316.00
2022-12-25T12:48:50.742Z,296.00
2022-12-25T12:49:50.731Z,284.00
2022-12-25T12:50:50.714Z,276.00
2022-12-25T12:51:50.690Z,312.00
2022-12-25T12:52:50.679Z,376.00
2022-12-25T12:53:50.679Z,352.00
2022-12-25T12:54:50.669Z,364.00
2022-12-25T12:55:50.656Z,336.00
2022-12-25T12:56:50.630Z,248.00